createdAt,value
2022-08-24T00:00:50.046Z,79.42
2022-08-24T00:05:51.555Z,79.22
2022-08-24T00:10:52.964Z,79.43
2022-08-24T00:15:55.003Z,79.31
2022-08-24T00:20:56.673Z,79.60
2022-08-24T00:25:58.028Z,79.57
2022-08-24T00:31:00.195Z,79.67
2022-08-24T00:36:01.892Z,79.58
2022-08-24T00:41:04.559Z,79.78
2022-08-24T00:46:23.257Z,79.72
2022-08-24T00:51:27.501Z,79.98
2022-08-24T00:56:34.577Z,80.19
2022-08-24T01:01:36.362Z,80.09
2022-08-24T01:06:37.792Z,80.06
2022-08-24T01:11:39.246Z,80.15
2022-08-24T01:16:59.352Z,80.16
2022-08-24T01:22:07.917Z,80.23
2022-08-24T01:27:10.344Z,80.31
2022-08-24T01:32:12.770Z,80.29
2022-08-24T01:37:14.251Z,80.20
2022-08-24T01:42:16.555Z,80.37
2022-08-24T01:47:18.343Z,80.44
2022-08-24T01:52:22.594Z,80.49
2022-08-24T01:57:26.206Z,80.50
2022-08-24T02:02:31.474Z,80.67
2022-08-24T02:07:34.314Z,80.52
2022-08-24T02:12:36.376Z,80.46
2022-08-24T02:17:38.840Z,80.60
2022-08-24T02:22:40.187Z,80.45
2022-08-24T02:27:41.581Z,80.53
2022-08-24T02:32:43.031Z,80.33
2022-08-24T02:37:44.636Z,80.16
2022-08-24T02:42:48.592Z,80.12
2022-08-24T02:47:49.949Z,80.04
2022-08-24T02:52:52.356Z,80.22
2022-08-24T02:57:54.342Z,80.06
2022-08-24T03:02:55.917Z,80.09
2022-08-24T03:07:57.545Z,80.34
2022-08-24T03:13:01.339Z,80.43
2022-08-24T03:18:02.861Z,80.36
2022-08-24T03:23:05.754Z,80.37
2022-08-24T03:28:08.675Z,80.47
2022-08-24T03:33:12.808Z,80.38
2022-08-24T03:38:14.421Z,80.47
2022-08-24T03:43:34.817Z,80.47
2022-08-24T03:48:36.584Z,80.56
2022-08-24T03:53:39.838Z,80.59
2022-08-24T03:58:45.791Z,80.95
2022-08-24T04:03:48.860Z,80.81
2022-08-24T04:08:51.170Z,80.79
2022-08-24T04:13:53.648Z,80.82
2022-08-24T04:18:59.100Z,80.68
2022-08-24T04:24:01.155Z,80.89
2022-08-24T04:29:03.200Z,80.91
2022-08-24T04:34:13.140Z,80.94
2022-08-24T04:39:15.063Z,80.90
2022-08-24T04:44:16.706Z,81.06
2022-08-24T04:49:18.242Z,81.13
2022-08-24T04:54:19.706Z,80.91
2022-08-24T04:59:29.731Z,81.27
2022-08-24T05:04:31.233Z,81.01
2022-08-24T05:09:33.128Z,80.92
2022-08-24T05:14:35.294Z,81.24
2022-08-24T05:19:36.732Z,81.19
2022-08-24T05:24:38.328Z,81.18
2022-08-24T05:29:40.028Z,81.29
2022-08-24T05:34:41.416Z,81.28
2022-08-24T05:39:44.765Z,81.12
2022-08-24T05:44:46.555Z,81.18
2022-08-24T05:49:53.557Z,81.13
2022-08-24T05:54:56.870Z,81.13
2022-08-24T06:00:00.513Z,80.90
2022-08-24T06:05:01.997Z,80.91
2022-08-24T06:10:32.848Z,80.53
2022-08-24T06:15:25.262Z,80.72
2022-08-24T06:20:26.923Z,80.85
2022-08-24T06:25:50.268Z,80.78
2022-08-24T06:31:00.349Z,81.19
2022-08-24T06:36:03.503Z,80.82
2022-08-24T06:41:07.173Z,81.00
2022-08-24T06:46:08.981Z,80.96
2022-08-24T06:51:17.227Z,80.95
2022-08-24T06:56:20.181Z,80.88
2022-08-24T07:01:23.086Z,80.82
2022-08-24T07:06:25.617Z,80.79
2022-08-24T07:11:32.199Z,80.53
2022-08-24T07:16:34.141Z,80.62
2022-08-24T07:21:37.223Z,80.44
2022-08-24T07:26:40.040Z,80.13
2022-08-24T07:31:43.331Z,80.04
2022-08-24T07:36:52.179Z,80.27
2022-08-24T07:42:12.018Z,80.24
2022-08-24T07:47:37.091Z,80.00
2022-08-24T07:52:39.213Z,79.51
2022-08-24T07:57:41.907Z,79.78
2022-08-24T08:02:46.456Z,79.93
2022-08-24T08:07:52.163Z,79.63
2022-08-24T08:12:54.129Z,80.13
2022-08-24T08:17:55.798Z,80.38
2022-08-24T08:23:16.420Z,80.43
2022-08-24T08:28:36.207Z,79.92
2022-08-24T08:33:38.270Z,80.00
2022-08-24T08:38:40.349Z,80.08
2022-08-24T08:43:44.412Z,79.97
2022-08-24T08:48:58.465Z,80.02
2022-08-24T08:54:09.321Z,80.22
2022-08-24T08:59:12.148Z,80.03
2022-08-24T09:04:25.423Z,79.61
2022-08-24T09:10:02.333Z,79.42
2022-08-24T09:15:06.257Z,78.94
2022-08-24T09:20:26.934Z,78.79
2022-08-24T09:25:31.920Z,78.82
2022-08-24T09:30:46.581Z,79.06
2022-08-24T09:35:51.640Z,79.37
2022-08-24T09:40:59.347Z,78.79
2022-08-24T09:46:27.069Z,78.93
2022-08-24T09:51:55.233Z,78.93
2022-08-24T09:57:21.749Z,79.02
2022-08-24T10:02:29.150Z,78.38
2022-08-24T10:07:43.105Z,77.51
2022-08-24T10:12:55.998Z,76.58
2022-08-24T10:18:09.812Z,77.23
2022-08-24T10:23:11.139Z,76.88
2022-08-24T10:28:12.453Z,77.10
2022-08-24T10:33:25.185Z,77.31
2022-08-24T10:38:51.233Z,76.57
2022-08-24T10:44:12.731Z,76.17
2022-08-24T10:49:27.789Z,76.30
2022-08-24T10:54:32.743Z,74.78
2022-08-24T10:59:53.105Z,74.94
2022-08-24T11:05:02.459Z,74.62
2022-08-24T11:10:06.957Z,75.30
2022-08-24T11:15:17.316Z,74.23
2022-08-24T11:20:38.090Z,74.45
2022-08-24T11:25:42.426Z,74.10
2022-08-24T11:30:44.126Z,73.45
2022-08-24T11:35:45.465Z,73.09
2022-08-24T11:40:55.767Z,73.30
2022-08-24T11:46:15.630Z,74.33
2022-08-24T11:51:27.669Z,74.82
2022-08-24T11:56:38.588Z,75.17
2022-08-24T12:01:58.661Z,75.31
2022-08-24T12:07:07.140Z,76.11
2022-08-24T12:12:08.868Z,76.09
2022-08-24T12:17:23.202Z,75.93
2022-08-24T12:22:25.869Z,75.81
2022-08-24T12:27:34.368Z,76.16
2022-08-24T12:32:39.217Z,75.66
2022-08-24T12:37:46.616Z,75.94
2022-08-24T12:42:52.488Z,75.76
2022-08-24T12:48:17.560Z,75.54
2022-08-24T12:53:29.965Z,76.19
2022-08-24T12:58:54.379Z,76.65
2022-08-24T13:04:03.638Z,76.07
2022-08-24T13:09:06.988Z,76.08
2022-08-24T13:14:26.257Z,75.72
2022-08-24T13:19:34.014Z,74.17
2022-08-24T13:24:35.372Z,74.64
2022-08-24T13:29:38.300Z,74.13
2022-08-24T13:34:41.621Z,74.73
2022-08-24T13:39:49.479Z,74.10
2022-08-24T13:45:00.171Z,74.31
2022-08-24T13:50:19.983Z,74.54
2022-08-24T13:55:30.999Z,74.92
2022-08-24T14:00:41.561Z,74.62
2022-08-24T14:05:54.283Z,74.37
2022-08-24T14:11:29.581Z,74.34
2022-08-24T14:16:58.736Z,72.75
2022-08-24T14:22:03.144Z,71.14
2022-08-24T14:27:09.862Z,71.61
2022-08-24T14:32:12.002Z,72.01
2022-08-24T14:37:13.691Z,71.81
2022-08-24T14:42:24.263Z,71.44
2022-08-24T14:47:32.262Z,70.79
2022-08-24T14:52:44.909Z,70.63
2022-08-24T14:57:49.661Z,70.58
2022-08-24T15:02:51.087Z,67.27
2022-08-24T15:07:57.740Z,67.71
2022-08-24T15:13:06.208Z,68.39
2022-08-24T15:18:28.134Z,69.09
2022-08-24T15:23:41.830Z,69.98
2022-08-24T15:28:56.410Z,70.87
2022-08-24T15:33:59.842Z,70.39
2022-08-24T15:39:04.141Z,69.98
2022-08-24T15:44:09.339Z,69.27
2022-08-24T15:49:17.133Z,69.54
2022-08-24T15:54:30.759Z,69.28
2022-08-24T15:59:52.320Z,69.70
2022-08-24T16:05:14.102Z,70.10
2022-08-24T16:10:27.669Z,70.08
2022-08-24T16:15:29.050Z,70.94
2022-08-24T16:20:32.645Z,71.13
2022-08-24T16:25:42.750Z,71.58
2022-08-24T16:30:47.529Z,71.57
2022-08-24T16:35:50.289Z,71.70
2022-08-24T16:40:51.774Z,72.08
2022-08-24T16:45:53.603Z,72.06
2022-08-24T16:50:56.224Z,71.87
2022-08-24T16:55:58.395Z,72.16
2022-08-24T17:01:00.503Z,71.61
2022-08-24T17:06:02.049Z,71.02
2022-08-24T17:11:04.849Z,71.29
2022-08-24T17:16:07.059Z,71.17
2022-08-24T17:21:08.592Z,72.13
2022-08-24T17:26:21.025Z,72.43
2022-08-24T17:31:24.739Z,71.64
2022-08-24T17:36:26.371Z,72.34
2022-08-24T17:41:34.545Z,72.85
2022-08-24T17:46:37.033Z,73.10
2022-08-24T17:51:38.581Z,73.55
2022-08-24T17:56:42.822Z,73.59
2022-08-24T18:01:44.449Z,74.19
2022-08-24T18:06:46.105Z,74.39
2022-08-24T18:11:47.486Z,74.46
2022-08-24T18:16:52.010Z,74.60
2022-08-24T18:21:58.404Z,74.85
2022-08-24T18:27:01.598Z,74.63
2022-08-24T18:32:03.504Z,74.79
2022-08-24T18:37:04.941Z,75.00
2022-08-24T18:42:07.623Z,75.13
2022-08-24T18:47:09.140Z,75.28
2022-08-24T18:52:14.372Z,75.67
2022-08-24T18:57:16.167Z,75.70
2022-08-24T19:02:31.774Z,75.85
2022-08-24T19:07:35.426Z,76.11
2022-08-24T19:12:46.936Z,75.86
2022-08-24T19:17:48.503Z,76.04
2022-08-24T19:22:49.875Z,76.17
2022-08-24T19:27:54.903Z,76.30
2022-08-24T19:32:57.135Z,76.39
2022-08-24T19:37:58.517Z,76.38
2022-08-24T19:43:01.549Z,76.43
2022-08-24T19:48:06.853Z,76.60
2022-08-24T19:53:10.125Z,76.76
2022-08-24T19:58:24.049Z,76.94
2022-08-24T20:03:25.383Z,76.78
2022-08-24T20:08:26.906Z,76.84
2022-08-24T20:13:28.558Z,77.06
2022-08-24T20:18:31.537Z,76.97
2022-08-24T20:23:33.425Z,77.21
2022-08-24T20:28:53.918Z,77.36
2022-08-24T20:33:55.346Z,77.37
2022-08-24T20:38:58.079Z,77.41
2022-08-24T20:43:59.432Z,77.64
2022-08-24T20:49:01.493Z,77.58
2022-08-24T20:54:03.099Z,77.53
2022-08-24T20:59:08.957Z,77.60
2022-08-24T21:04:10.495Z,77.64
2022-08-24T21:09:14.359Z,77.65
2022-08-24T21:14:16.110Z,77.66
2022-08-24T21:19:17.625Z,77.93
2022-08-24T21:24:19.237Z,77.57
2022-08-24T21:29:20.721Z,77.64
2022-08-24T21:34:40.629Z,77.95
2022-08-24T21:39:42.272Z,77.96
2022-08-24T21:44:44.080Z,77.97
2022-08-24T21:49:45.386Z,78.04
2022-08-24T21:54:47.145Z,77.89
2022-08-24T21:59:48.909Z,77.94
2022-08-24T22:04:56.251Z,77.91
2022-08-24T22:09:58.174Z,78.07
2022-08-24T22:15:00.323Z,77.99
2022-08-24T22:20:01.968Z,78.08
2022-08-24T22:25:04.421Z,77.91
2022-08-24T22:30:06.720Z,78.11
2022-08-24T22:35:08.369Z,78.16
2022-08-24T22:40:12.458Z,78.20
2022-08-24T22:45:14.133Z,78.18
2022-08-24T22:50:15.485Z,78.24
2022-08-24T22:55:16.959Z,78.20
2022-08-24T23:00:18.609Z,78.15
2022-08-24T23:05:20.087Z,78.18
2022-08-24T23:10:21.533Z,78.11
2022-08-24T23:15:22.864Z,78.19
2022-08-24T23:20:24.184Z,78.06
2022-08-24T23:25:26.100Z,78.00
2022-08-24T23:30:27.539Z,78.02
2022-08-24T23:35:29.331Z,78.20
2022-08-24T23:40:31.245Z,77.94
2022-08-24T23:45:32.967Z,77.98
2022-08-24T23:50:34.534Z,78.06
2022-08-24T23:55:36.448Z,77.90
